sensor_id;sensor_type;location;lat;lon;timestamp;P1;durP1;ratioP1;P2;durP2;ratioP2
55423;SDS011;41294;42.666;23.350;2022-09-03T00:00:12;6.50;;;4.78;;
55423;SDS011;41294;42.666;23.350;2022-09-03T00:02:42;5.85;;;5.10;;
55423;SDS011;41294;42.666;23.350;2022-09-03T00:13:11;6.22;;;5.45;;
55423;SDS011;41294;42.666;23.350;2022-09-03T00:15:40;6.57;;;5.70;;
55423;SDS011;41294;42.666;23.350;2022-09-03T00:18:19;8.93;;;6.00;;
55423;SDS011;41294;42.666;23.350;2022-09-03T00:20:51;7.63;;;5.97;;
55423;SDS011;41294;42.666;23.350;2022-09-03T00:23:24;8.18;;;5.82;;
55423;SDS011;41294;42.666;23.350;2022-09-03T00:31:46;7.45;;;5.78;;
55423;SDS011;41294;42.666;23.350;2022-09-03T00:34:19;9.68;;;6.10;;
55423;SDS011;41294;42.666;23.350;2022-09-03T00:36:50;8.52;;;5.95;;
55423;SDS011;41294;42.666;23.350;2022-09-03T00:39:18;8.32;;;6.00;;
55423;SDS011;41294;42.666;23.350;2022-09-03T00:47:01;8.00;;;6.18;;
55423;SDS011;41294;42.666;23.350;2022-09-03T00:52:24;7.22;;;6.53;;
55423;SDS011;41294;42.666;23.350;2022-09-03T00:55:10;7.93;;;6.25;;
55423;SDS011;41294;42.666;23.350;2022-09-03T01:00:30;12.88;;;7.05;;
55423;SDS011;41294;42.666;23.350;2022-09-03T01:30:19;8.45;;;6.28;;
55423;SDS011;41294;42.666;23.350;2022-09-03T01:32:51;9.35;;;5.95;;
55423;SDS011;41294;42.666;23.350;2022-09-03T01:40:53;6.30;;;5.65;;
55423;SDS011;41294;42.666;23.350;2022-09-03T01:48:44;7.78;;;5.85;;
55423;SDS011;41294;42.666;23.350;2022-09-03T01:51:19;6.53;;;5.90;;
55423;SDS011;41294;42.666;23.350;2022-09-03T02:02:33;6.88;;;6.18;;
55423;SDS011;41294;42.666;23.350;2022-09-03T02:05:04;7.10;;;6.13;;
55423;SDS011;41294;42.666;23.350;2022-09-03T02:07:43;8.25;;;6.38;;
55423;SDS011;41294;42.666;23.350;2022-09-03T02:10:19;9.30;;;6.20;;
55423;SDS011;41294;42.666;23.350;2022-09-03T02:12:51;8.55;;;6.63;;
55423;SDS011;41294;42.666;23.350;2022-09-03T02:15:21;8.00;;;5.97;;
55423;SDS011;41294;42.666;23.350;2022-09-03T02:17:50;8.02;;;6.03;;
55423;SDS011;41294;42.666;23.350;2022-09-03T02:20:21;8.15;;;6.00;;
55423;SDS011;41294;42.666;23.350;2022-09-03T02:22:50;7.07;;;6.20;;
55423;SDS011;41294;42.666;23.350;2022-09-03T02:25:18;6.60;;;5.82;;
55423;SDS011;41294;42.666;23.350;2022-09-03T02:27:47;7.18;;;6.00;;
55423;SDS011;41294;42.666;23.350;2022-09-03T02:30:16;6.97;;;6.28;;
55423;SDS011;41294;42.666;23.350;2022-09-03T02:32:42;7.28;;;6.18;;
55423;SDS011;41294;42.666;23.350;2022-09-03T02:35:08;7.75;;;6.30;;
55423;SDS011;41294;42.666;23.350;2022-09-03T02:37:34;7.47;;;6.57;;
55423;SDS011;41294;42.666;23.350;2022-09-03T02:39:59;7.22;;;6.32;;
55423;SDS011;41294;42.666;23.350;2022-09-03T02:42:25;8.57;;;6.40;;
55423;SDS011;41294;42.666;23.350;2022-09-03T02:44:52;7.85;;;6.22;;
55423;SDS011;41294;42.666;23.350;2022-09-03T02:47:38;7.20;;;6.47;;
55423;SDS011;41294;42.666;23.350;2022-09-03T02:50:08;7.22;;;6.50;;
55423;SDS011;41294;42.666;23.350;2022-09-03T02:52:34;7.53;;;6.25;;
55423;SDS011;41294;42.666;23.350;2022-09-03T02:54:59;8.55;;;6.50;;
55423;SDS011;41294;42.666;23.350;2022-09-03T02:57:25;8.10;;;6.80;;
55423;SDS011;41294;42.666;23.350;2022-09-03T02:59:51;7.07;;;6.32;;
55423;SDS011;41294;42.666;23.350;2022-09-03T03:02:16;7.35;;;5.65;;
55423;SDS011;41294;42.666;23.350;2022-09-03T03:04:42;7.68;;;6.60;;
55423;SDS011;41294;42.666;23.350;2022-09-03T03:07:07;7.15;;;6.55;;
55423;SDS011;41294;42.666;23.350;2022-09-03T03:09:33;9.40;;;7.03;;
55423;SDS011;41294;42.666;23.350;2022-09-03T03:11:58;8.50;;;6.90;;
55423;SDS011;41294;42.666;23.350;2022-09-03T03:14:23;9.18;;;7.30;;
55423;SDS011;41294;42.666;23.350;2022-09-03T03:16:49;8.65;;;7.20;;
55423;SDS011;41294;42.666;23.350;2022-09-03T03:19:15;7.43;;;6.50;;
55423;SDS011;41294;42.666;23.350;2022-09-03T03:21:41;7.85;;;6.65;;
55423;SDS011;41294;42.666;23.350;2022-09-03T03:24:06;9.55;;;6.97;;
55423;SDS011;41294;42.666;23.350;2022-09-03T03:26:32;10.05;;;7.55;;
55423;SDS011;41294;42.666;23.350;2022-09-03T03:28:58;8.43;;;6.57;;
55423;SDS011;41294;42.666;23.350;2022-09-03T03:31:25;7.78;;;6.72;;
55423;SDS011;41294;42.666;23.350;2022-09-03T03:33:54;8.35;;;6.63;;
55423;SDS011;41294;42.666;23.350;2022-09-03T03:36:23;6.65;;;5.95;;
55423;SDS011;41294;42.666;23.350;2022-09-03T03:38:52;7.47;;;6.28;;
55423;SDS011;41294;42.666;23.350;2022-09-03T03:41:19;7.68;;;6.88;;
55423;SDS011;41294;42.666;23.350;2022-09-03T03:43:51;8.23;;;7.25;;
55423;SDS011;41294;42.666;23.350;2022-09-03T03:46:19;7.35;;;6.47;;
55423;SDS011;41294;42.666;23.350;2022-09-03T03:48:46;8.38;;;6.55;;
55423;SDS011;41294;42.666;23.350;2022-09-03T03:51:12;9.68;;;6.40;;
55423;SDS011;41294;42.666;23.350;2022-09-03T03:53:38;7.78;;;6.10;;
55423;SDS011;41294;42.666;23.350;2022-09-03T03:56:05;7.40;;;6.32;;
55423;SDS011;41294;42.666;23.350;2022-09-03T03:58:33;8.20;;;6.78;;
55423;SDS011;41294;42.666;23.350;2022-09-03T04:01:19;7.75;;;6.55;;
55423;SDS011;41294;42.666;23.350;2022-09-03T04:03:46;7.10;;;6.40;;
55423;SDS011;41294;42.666;23.350;2022-09-03T04:06:12;7.82;;;6.68;;
55423;SDS011;41294;42.666;23.350;2022-09-03T04:08:39;7.55;;;6.47;;
55423;SDS011;41294;42.666;23.350;2022-09-03T04:11:07;8.00;;;7.20;;
55423;SDS011;41294;42.666;23.350;2022-09-03T04:13:35;9.65;;;6.80;;
55423;SDS011;41294;42.666;23.350;2022-09-03T04:18:36;9.40;;;7.30;;
55423;SDS011;41294;42.666;23.350;2022-09-03T04:21:13;8.23;;;6.93;;
55423;SDS011;41294;42.666;23.350;2022-09-03T04:23:41;9.18;;;7.40;;
55423;SDS011;41294;42.666;23.350;2022-09-03T04:26:09;9.48;;;6.80;;
55423;SDS011;41294;42.666;23.350;2022-09-03T04:28:36;7.85;;;6.45;;
55423;SDS011;41294;42.666;23.350;2022-09-03T04:31:05;7.15;;;6.45;;
55423;SDS011;41294;42.666;23.350;2022-09-03T04:33:35;8.45;;;7.43;;
55423;SDS011;41294;42.666;23.350;2022-09-03T04:36:05;8.40;;;7.00;;
55423;SDS011;41294;42.666;23.350;2022-09-03T04:38:33;7.20;;;6.50;;
55423;SDS011;41294;42.666;23.350;2022-09-03T04:41:00;8.57;;;6.90;;
55423;SDS011;41294;42.666;23.350;2022-09-03T04:43:28;7.90;;;6.93;;
55423;SDS011;41294;42.666;23.350;2022-09-03T04:45:58;8.88;;;6.72;;
55423;SDS011;41294;42.666;23.350;2022-09-03T04:48:25;8.63;;;6.93;;
55423;SDS011;41294;42.666;23.350;2022-09-03T04:50:51;8.32;;;7.47;;
55423;SDS011;41294;42.666;23.350;2022-09-03T04:53:17;9.57;;;7.05;;
55423;SDS011;41294;42.666;23.350;2022-09-03T04:55:42;8.52;;;7.28;;
55423;SDS011;41294;42.666;23.350;2022-09-03T04:58:08;9.07;;;6.53;;
55423;SDS011;41294;42.666;23.350;2022-09-03T05:00:35;8.82;;;6.60;;
55423;SDS011;41294;42.666;23.350;2022-09-03T05:03:01;7.68;;;6.88;;
55423;SDS011;41294;42.666;23.350;2022-09-03T05:05:29;7.85;;;6.97;;
55423;SDS011;41294;42.666;23.350;2022-09-03T05:07:58;6.72;;;6.03;;
55423;SDS011;41294;42.666;23.350;2022-09-03T05:10:28;7.80;;;7.00;;
55423;SDS011;41294;42.666;23.350;2022-09-03T05:13:01;8.00;;;6.63;;
55423;SDS011;41294;42.666;23.350;2022-09-03T05:15:29;7.70;;;6.25;;
55423;SDS011;41294;42.666;23.350;2022-09-03T05:17:56;8.93;;;6.07;;
55423;SDS011;41294;42.666;23.350;2022-09-03T05:20:26;10.65;;;6.28;;
55423;SDS011;41294;42.666;23.350;2022-09-03T05:22:52;7.03;;;5.93;;
55423;SDS011;41294;42.666;23.350;2022-09-03T05:25:18;8.75;;;6.20;;
55423;SDS011;41294;42.666;23.350;2022-09-03T05:27:43;8.63;;;6.57;;
55423;SDS011;41294;42.666;23.350;2022-09-03T05:30:09;6.95;;;6.25;;
55423;SDS011;41294;42.666;23.350;2022-09-03T05:32:34;7.55;;;6.70;;
55423;SDS011;41294;42.666;23.350;2022-09-03T05:35:00;7.38;;;6.63;;
55423;SDS011;41294;42.666;23.350;2022-09-03T05:37:25;7.60;;;6.00;;
55423;SDS011;41294;42.666;23.350;2022-09-03T05:39:51;6.32;;;5.45;;
55423;SDS011;41294;42.666;23.350;2022-09-03T05:42:17;7.30;;;6.03;;
55423;SDS011;41294;42.666;23.350;2022-09-03T05:44:42;7.03;;;6.07;;
55423;SDS011;41294;42.666;23.350;2022-09-03T05:47:08;6.32;;;5.72;;
55423;SDS011;41294;42.666;23.350;2022-09-03T05:49:33;6.60;;;5.93;;
55423;SDS011;41294;42.666;23.350;2022-09-03T05:51:59;10.48;;;7.00;;
55423;SDS011;41294;42.666;23.350;2022-09-03T05:54:24;7.97;;;6.20;;
55423;SDS011;41294;42.666;23.350;2022-09-03T05:56:50;8.15;;;6.32;;
55423;SDS011;41294;42.666;23.350;2022-09-03T05:59:15;7.60;;;5.88;;
55423;SDS011;41294;42.666;23.350;2022-09-03T06:01:41;7.28;;;5.50;;
55423;SDS011;41294;42.666;23.350;2022-09-03T06:04:10;6.32;;;5.68;;
55423;SDS011;41294;42.666;23.350;2022-09-03T06:06:39;7.18;;;5.78;;
55423;SDS011;41294;42.666;23.350;2022-09-03T06:09:07;7.15;;;5.60;;
55423;SDS011;41294;42.666;23.350;2022-09-03T06:11:41;6.50;;;5.80;;
55423;SDS011;41294;42.666;23.350;2022-09-03T06:14:08;5.95;;;5.45;;
55423;SDS011;41294;42.666;23.350;2022-09-03T06:16:36;6.57;;;5.95;;
55423;SDS011;41294;42.666;23.350;2022-09-03T06:19:04;6.30;;;5.40;;
55423;SDS011;41294;42.666;23.350;2022-09-03T06:21:38;7.25;;;5.90;;
55423;SDS011;41294;42.666;23.350;2022-09-03T06:24:07;6.30;;;5.70;;
55423;SDS011;41294;42.666;23.350;2022-09-03T06:26:34;6.43;;;5.80;;
55423;SDS011;41294;42.666;23.350;2022-09-03T06:28:59;7.00;;;5.90;;
55423;SDS011;41294;42.666;23.350;2022-09-03T06:31:25;7.07;;;6.35;;
55423;SDS011;41294;42.666;23.350;2022-09-03T06:33:51;7.00;;;6.25;;
55423;SDS011;41294;42.666;23.350;2022-09-03T06:36:19;6.63;;;6.00;;
55423;SDS011;41294;42.666;23.350;2022-09-03T06:38:45;6.68;;;6.00;;
55423;SDS011;41294;42.666;23.350;2022-09-03T06:41:12;6.22;;;5.63;;
55423;SDS011;41294;42.666;23.350;2022-09-03T06:43:45;7.22;;;6.30;;
55423;SDS011;41294;42.666;23.350;2022-09-03T06:46:16;7.72;;;6.30;;
55423;SDS011;41294;42.666;23.350;2022-09-03T06:48:43;7.63;;;6.60;;
55423;SDS011;41294;42.666;23.350;2022-09-03T06:51:11;7.07;;;6.38;;
55423;SDS011;41294;42.666;23.350;2022-09-03T06:53:41;6.80;;;6.15;;
55423;SDS011;41294;42.666;23.350;2022-09-03T06:56:09;7.30;;;6.60;;
55423;SDS011;41294;42.666;23.350;2022-09-03T06:58:37;6.50;;;5.90;;
55423;SDS011;41294;42.666;23.350;2022-09-03T07:01:05;12.23;;;6.50;;
55423;SDS011;41294;42.666;23.350;2022-09-03T07:03:35;12.15;;;6.35;;
55423;SDS011;41294;42.666;23.350;2022-09-03T07:06:02;6.88;;;5.97;;
55423;SDS011;41294;42.666;23.350;2022-09-03T07:08:30;7.60;;;5.65;;
55423;SDS011;41294;42.666;23.350;2022-09-03T07:11:01;7.65;;;6.05;;
55423;SDS011;41294;42.666;23.350;2022-09-03T07:13:33;7.47;;;6.20;;
55423;SDS011;41294;42.666;23.350;2022-09-03T07:16:10;6.13;;;5.53;;
55423;SDS011;41294;42.666;23.350;2022-09-03T07:18:37;7.05;;;6.25;;
55423;SDS011;41294;42.666;23.350;2022-09-03T07:21:07;6.03;;;5.20;;
55423;SDS011;41294;42.666;23.350;2022-09-03T07:23:35;6.55;;;5.95;;
55423;SDS011;41294;42.666;23.350;2022-09-03T07:26:06;5.70;;;5.20;;
55423;SDS011;41294;42.666;23.350;2022-09-03T07:28:34;6.18;;;5.57;;
55423;SDS011;41294;42.666;23.350;2022-09-03T07:31:03;6.07;;;5.50;;
55423;SDS011;41294;42.666;23.350;2022-09-03T07:33:33;6.38;;;5.78;;
55423;SDS011;41294;42.666;23.350;2022-09-03T07:36:03;5.78;;;5.28;;
55423;SDS011;41294;42.666;23.350;2022-09-03T07:38:30;5.88;;;5.35;;
55423;SDS011;41294;42.666;23.350;2022-09-03T07:40:57;6.13;;;5.15;;
55423;SDS011;41294;42.666;23.350;2022-09-03T07:43:24;5.60;;;5.13;;
55423;SDS011;41294;42.666;23.350;2022-09-03T07:45:51;5.72;;;5.22;;
55423;SDS011;41294;42.666;23.350;2022-09-03T07:48:16;5.38;;;4.82;;
55423;SDS011;41294;42.666;23.350;2022-09-03T07:50:42;5.00;;;4.60;;
55423;SDS011;41294;42.666;23.350;2022-09-03T07:53:07;5.53;;;5.03;;
55423;SDS011;41294;42.666;23.350;2022-09-03T07:55:33;5.00;;;4.60;;
55423;SDS011;41294;42.666;23.350;2022-09-03T07:57:58;5.50;;;5.00;;
55423;SDS011;41294;42.666;23.350;2022-09-03T08:00:24;5.20;;;4.80;;
55423;SDS011;41294;42.666;23.350;2022-09-03T08:02:50;6.65;;;5.05;;
55423;SDS011;41294;42.666;23.350;2022-09-03T08:05:16;5.97;;;5.18;;
55423;SDS011;41294;42.666;23.350;2022-09-03T08:07:44;5.70;;;5.20;;
55423;SDS011;41294;42.666;23.350;2022-09-03T08:10:10;5.70;;;5.20;;
55423;SDS011;41294;42.666;23.350;2022-09-03T08:12:35;6.03;;;5.50;;
55423;SDS011;41294;42.666;23.350;2022-09-03T08:15:00;4.90;;;4.50;;
55423;SDS011;41294;42.666;23.350;2022-09-03T08:17:26;5.53;;;4.10;;
55423;SDS011;41294;42.666;23.350;2022-09-03T08:19:52;5.18;;;4.78;;
55423;SDS011;41294;42.666;23.350;2022-09-03T08:22:17;5.25;;;4.50;;
55423;SDS011;41294;42.666;23.350;2022-09-03T08:24:44;5.47;;;4.93;;
55423;SDS011;41294;42.666;23.350;2022-09-03T08:27:10;18.67;;;12.70;;
55423;SDS011;41294;42.666;23.350;2022-09-03T08:29:35;13.45;;;10.45;;
55423;SDS011;41294;42.666;23.350;2022-09-03T08:32:02;6.78;;;6.00;;
55423;SDS011;41294;42.666;23.350;2022-09-03T08:34:27;5.45;;;4.95;;
55423;SDS011;41294;42.666;23.350;2022-09-03T08:36:53;5.45;;;4.95;;
55423;SDS011;41294;42.666;23.350;2022-09-03T08:39:18;5.20;;;4.70;;
55423;SDS011;41294;42.666;23.350;2022-09-03T08:47:21;5.93;;;5.30;;
55423;SDS011;41294;42.666;23.350;2022-09-03T08:52:37;4.30;;;4.00;;
55423;SDS011;41294;42.666;23.350;2022-09-03T08:55:13;4.43;;;4.03;;
55423;SDS011;41294;42.666;23.350;2022-09-03T08:57:44;4.90;;;4.30;;
55423;SDS011;41294;42.666;23.350;2022-09-03T09:00:12;4.80;;;4.43;;
55423;SDS011;41294;42.666;23.350;2022-09-03T09:02:47;4.35;;;3.97;;
55423;SDS011;41294;42.666;23.350;2022-09-03T09:05:30;4.40;;;4.10;;
55423;SDS011;41294;42.666;23.350;2022-09-03T09:08:11;5.20;;;4.40;;
55423;SDS011;41294;42.666;23.350;2022-09-03T09:10:44;6.78;;;4.35;;
55423;SDS011;41294;42.666;23.350;2022-09-03T09:21:46;4.45;;;4.05;;
55423;SDS011;41294;42.666;23.350;2022-09-03T09:24:24;4.20;;;3.80;;
55423;SDS011;41294;42.666;23.350;2022-09-03T09:27:01;5.10;;;4.70;;
55423;SDS011;41294;42.666;23.350;2022-09-03T09:29:32;5.00;;;4.47;;
55423;SDS011;41294;42.666;23.350;2022-09-03T09:32:01;4.72;;;4.30;;
55423;SDS011;41294;42.666;23.350;2022-09-03T09:34:32;6.38;;;4.18;;
55423;SDS011;41294;42.666;23.350;2022-09-03T09:37:02;6.57;;;4.05;;
55423;SDS011;41294;42.666;23.350;2022-09-03T09:39:31;4.40;;;4.10;;
55423;SDS011;41294;42.666;23.350;2022-09-03T09:41:57;4.22;;;3.92;;
55423;SDS011;41294;42.666;23.350;2022-09-03T09:44:23;4.38;;;4.07;;
55423;SDS011;41294;42.666;23.350;2022-09-03T09:46:50;3.90;;;3.50;;
55423;SDS011;41294;42.666;23.350;2022-09-03T09:54:33;4.80;;;4.32;;
55423;SDS011;41294;42.666;23.350;2022-09-03T09:56:59;5.72;;;4.30;;
55423;SDS011;41294;42.666;23.350;2022-09-03T09:59:27;4.05;;;3.75;;
55423;SDS011;41294;42.666;23.350;2022-09-03T10:02:03;4.70;;;4.30;;
55423;SDS011;41294;42.666;23.350;2022-09-03T10:04:33;4.28;;;3.88;;
55423;SDS011;41294;42.666;23.350;2022-09-03T10:10:15;4.45;;;4.05;;
55423;SDS011;41294;42.666;23.350;2022-09-03T10:15:24;4.47;;;4.00;;
55423;SDS011;41294;42.666;23.350;2022-09-03T10:17:55;4.80;;;4.18;;
55423;SDS011;41294;42.666;23.350;2022-09-03T10:20:44;4.93;;;4.53;;
55423;SDS011;41294;42.666;23.350;2022-09-03T10:23:19;4.85;;;4.40;;
55423;SDS011;41294;42.666;23.350;2022-09-03T10:28:33;7.32;;;4.32;;
55423;SDS011;41294;42.666;23.350;2022-09-03T10:33:39;5.00;;;4.28;;
55423;SDS011;41294;42.666;23.350;2022-09-03T10:38:48;4.60;;;4.20;;
55423;SDS011;41294;42.666;23.350;2022-09-03T10:46:52;6.30;;;4.70;;
55423;SDS011;41294;42.666;23.350;2022-09-03T10:55:32;4.43;;;4.13;;
55423;SDS011;41294;42.666;23.350;2022-09-03T11:00:44;5.32;;;4.40;;
55423;SDS011;41294;42.666;23.350;2022-09-03T11:03:34;4.43;;;4.03;;
55423;SDS011;41294;42.666;23.350;2022-09-03T11:06:14;4.63;;;4.30;;
55423;SDS011;41294;42.666;23.350;2022-09-03T11:11:15;4.68;;;4.30;;
55423;SDS011;41294;42.666;23.350;2022-09-03T11:14:06;4.38;;;3.97;;
55423;SDS011;41294;42.666;23.350;2022-09-03T11:16:34;3.90;;;3.60;;
55423;SDS011;41294;42.666;23.350;2022-09-03T11:19:10;4.90;;;4.50;;
55423;SDS011;41294;42.666;23.350;2022-09-03T11:21:40;3.90;;;3.60;;
55423;SDS011;41294;42.666;23.350;2022-09-03T11:24:24;4.00;;;3.70;;
55423;SDS011;41294;42.666;23.350;2022-09-03T11:26:54;4.38;;;3.47;;
55423;SDS011;41294;42.666;23.350;2022-09-03T11:32:15;3.88;;;3.58;;
55423;SDS011;41294;42.666;23.350;2022-09-03T11:34:52;4.25;;;3.95;;
55423;SDS011;41294;42.666;23.350;2022-09-03T11:37:23;3.92;;;3.58;;
55423;SDS011;41294;42.666;23.350;2022-09-03T11:39:57;3.50;;;3.30;;
55423;SDS011;41294;42.666;23.350;2022-09-03T11:42:27;3.67;;;3.38;;
55423;SDS011;41294;42.666;23.350;2022-09-03T11:45:10;3.67;;;3.38;;
55423;SDS011;41294;42.666;23.350;2022-09-03T11:47:59;4.25;;;3.88;;
55423;SDS011;41294;42.666;23.350;2022-09-03T11:50:29;4.22;;;3.92;;
55423;SDS011;41294;42.666;23.350;2022-09-03T11:53:07;4.07;;;3.78;;
55423;SDS011;41294;42.666;23.350;2022-09-03T11:55:54;4.85;;;3.50;;
55423;SDS011;41294;42.666;23.350;2022-09-03T11:58:25;4.53;;;4.10;;
55423;SDS011;41294;42.666;23.350;2022-09-03T12:00:52;6.53;;;4.85;;
55423;SDS011;41294;42.666;23.350;2022-09-03T12:03:24;6.30;;;5.70;;
55423;SDS011;41294;42.666;23.350;2022-09-03T12:19:52;3.88;;;3.58;;
55423;SDS011;41294;42.666;23.350;2022-09-03T12:22:20;3.80;;;3.50;;
55423;SDS011;41294;42.666;23.350;2022-09-03T12:24:48;5.05;;;4.05;;
55423;SDS011;41294;42.666;23.350;2022-09-03T12:27:21;4.18;;;3.78;;
55423;SDS011;41294;42.666;23.350;2022-09-03T12:29:51;4.38;;;3.70;;
55423;SDS011;41294;42.666;23.350;2022-09-03T12:32:21;4.78;;;4.28;;
55423;SDS011;41294;42.666;23.350;2022-09-03T12:34:48;4.97;;;4.35;;
55423;SDS011;41294;42.666;23.350;2022-09-03T12:37:20;5.85;;;4.35;;
55423;SDS011;41294;42.666;23.350;2022-09-03T12:39:54;4.57;;;4.18;;
55423;SDS011;41294;42.666;23.350;2022-09-03T12:42:27;5.63;;;4.57;;
55423;SDS011;41294;42.666;23.350;2022-09-03T12:44:55;5.05;;;4.65;;
55423;SDS011;41294;42.666;23.350;2022-09-03T12:47:29;5.25;;;4.75;;
55423;SDS011;41294;42.666;23.350;2022-09-03T12:50:03;6.03;;;4.60;;
55423;SDS011;41294;42.666;23.350;2022-09-03T12:52:45;4.82;;;4.43;;
55423;SDS011;41294;42.666;23.350;2022-09-03T12:58:10;3.95;;;3.65;;
55423;SDS011;41294;42.666;23.350;2022-09-03T13:00:48;4.03;;;3.72;;
55423;SDS011;41294;42.666;23.350;2022-09-03T13:03:20;3.25;;;3.00;;
55423;SDS011;41294;42.666;23.350;2022-09-03T13:05:53;4.20;;;3.80;;
55423;SDS011;41294;42.666;23.350;2022-09-03T13:08:25;4.10;;;3.70;;
55423;SDS011;41294;42.666;23.350;2022-09-03T13:10:54;3.85;;;3.55;;
55423;SDS011;41294;42.666;23.350;2022-09-03T13:13:29;3.70;;;3.40;;
55423;SDS011;41294;42.666;23.350;2022-09-03T13:22:01;4.07;;;3.78;;
55423;SDS011;41294;42.666;23.350;2022-09-03T13:30:06;3.80;;;3.50;;
55423;SDS011;41294;42.666;23.350;2022-09-03T13:40:48;3.17;;;2.97;;
55423;SDS011;41294;42.666;23.350;2022-09-03T13:43:29;2.92;;;2.72;;
55423;SDS011;41294;42.666;23.350;2022-09-03T13:46:07;3.30;;;3.03;;
55423;SDS011;41294;42.666;23.350;2022-09-03T13:48:42;3.60;;;3.30;;
55423;SDS011;41294;42.666;23.350;2022-09-03T13:51:28;3.53;;;3.22;;
55423;SDS011;41294;42.666;23.350;2022-09-03T13:54:06;3.20;;;2.97;;
55423;SDS011;41294;42.666;23.350;2022-09-03T13:56:49;4.40;;;3.17;;
55423;SDS011;41294;42.666;23.350;2022-09-03T13:59:21;3.00;;;2.80;;
55423;SDS011;41294;42.666;23.350;2022-09-03T14:05:30;5.88;;;3.00;;
55423;SDS011;41294;42.666;23.350;2022-09-03T14:07:50;3.25;;;3.05;;
55423;SDS011;41294;42.666;23.350;2022-09-03T14:10:59;7.65;;;4.47;;
55423;SDS011;41294;42.666;23.350;2022-09-03T14:19:00;3.83;;;2.92;;
55423;SDS011;41294;42.666;23.350;2022-09-03T14:21:35;4.90;;;3.45;;
55423;SDS011;41294;42.666;23.350;2022-09-03T14:24:44;3.85;;;3.45;;
55423;SDS011;41294;42.666;23.350;2022-09-03T14:27:21;3.83;;;3.50;;
55423;SDS011;41294;42.666;23.350;2022-09-03T14:29:50;6.03;;;3.60;;
55423;SDS011;41294;42.666;23.350;2022-09-03T14:46:21;4.40;;;4.00;;
55423;SDS011;41294;42.666;23.350;2022-09-03T14:51:14;5.65;;;3.50;;
55423;SDS011;41294;42.666;23.350;2022-09-03T15:01:42;3.85;;;3.55;;
55423;SDS011;41294;42.666;23.350;2022-09-03T15:13:28;3.92;;;3.42;;
55423;SDS011;41294;42.666;23.350;2022-09-03T15:15:41;5.85;;;3.17;;
55423;SDS011;41294;42.666;23.350;2022-09-03T15:21:15;5.35;;;3.42;;
55423;SDS011;41294;42.666;23.350;2022-09-03T15:37:27;4.47;;;3.25;;
55423;SDS011;41294;42.666;23.350;2022-09-03T15:40:00;5.13;;;3.72;;
55423;SDS011;41294;42.666;23.350;2022-09-03T15:42:35;4.10;;;3.70;;
55423;SDS011;41294;42.666;23.350;2022-09-03T15:45:03;4.90;;;3.65;;
55423;SDS011;41294;42.666;23.350;2022-09-03T15:47:47;3.92;;;3.63;;
55423;SDS011;41294;42.666;23.350;2022-09-03T15:59:30;5.50;;;4.60;;
55423;SDS011;41294;42.666;23.350;2022-09-03T16:20:59;5.95;;;5.10;;
55423;SDS011;41294;42.666;23.350;2022-09-03T16:28:54;5.90;;;5.30;;
55423;SDS011;41294;42.666;23.350;2022-09-03T16:40:16;7.57;;;5.20;;
55423;SDS011;41294;42.666;23.350;2022-09-03T16:45:57;6.18;;;5.60;;
55423;SDS011;41294;42.666;23.350;2022-09-03T17:05:14;6.63;;;5.53;;
55423;SDS011;41294;42.666;23.350;2022-09-03T17:10:32;6.43;;;5.75;;
55423;SDS011;41294;42.666;23.350;2022-09-03T17:15:57;7.15;;;6.13;;
55423;SDS011;41294;42.666;23.350;2022-09-03T17:35:20;6.20;;;5.70;;
55423;SDS011;41294;42.666;23.350;2022-09-03T17:45:57;6.88;;;6.15;;
55423;SDS011;41294;42.666;23.350;2022-09-03T17:48:51;7.88;;;6.75;;
55423;SDS011;41294;42.666;23.350;2022-09-03T17:56:25;6.93;;;6.22;;
55423;SDS011;41294;42.666;23.350;2022-09-03T17:59:01;7.45;;;6.10;;
55423;SDS011;41294;42.666;23.350;2022-09-03T18:01:33;7.18;;;6.47;;
55423;SDS011;41294;42.666;23.350;2022-09-03T18:04:12;8.10;;;6.25;;
55423;SDS011;41294;42.666;23.350;2022-09-03T18:06:55;6.93;;;6.13;;
55423;SDS011;41294;42.666;23.350;2022-09-03T18:09:40;7.53;;;6.30;;
55423;SDS011;41294;42.666;23.350;2022-09-03T18:12:28;8.40;;;6.13;;
55423;SDS011;41294;42.666;23.350;2022-09-03T18:20:15;7.28;;;6.40;;
55423;SDS011;41294;42.666;23.350;2022-09-03T18:23:07;8.32;;;6.72;;
55423;SDS011;41294;42.666;23.350;2022-09-03T18:25:55;7.35;;;6.45;;
55423;SDS011;41294;42.666;23.350;2022-09-03T18:28:46;7.00;;;6.30;;
55423;SDS011;41294;42.666;23.350;2022-09-03T18:31:36;7.28;;;6.57;;
55423;SDS011;41294;42.666;23.350;2022-09-03T18:34:22;7.97;;;6.60;;
55423;SDS011;41294;42.666;23.350;2022-09-03T18:37:21;7.70;;;6.90;;
55423;SDS011;41294;42.666;23.350;2022-09-03T18:40:08;7.25;;;6.65;;
55423;SDS011;41294;42.666;23.350;2022-09-03T18:46:00;7.03;;;6.35;;
55423;SDS011;41294;42.666;23.350;2022-09-03T18:52:06;8.93;;;6.72;;
55423;SDS011;41294;42.666;23.350;2022-09-03T18:55:04;7.13;;;6.45;;
55423;SDS011;41294;42.666;23.350;2022-09-03T19:01:45;8.13;;;7.32;;
55423;SDS011;41294;42.666;23.350;2022-09-03T19:04:10;8.65;;;7.20;;
55423;SDS011;41294;42.666;23.350;2022-09-03T19:10:33;8.43;;;7.50;;
55423;SDS011;41294;42.666;23.350;2022-09-03T19:13:35;9.02;;;7.22;;
55423;SDS011;41294;42.666;23.350;2022-09-03T19:25:19;7.32;;;6.60;;
55423;SDS011;41294;42.666;23.350;2022-09-03T19:28:23;8.00;;;7.20;;
55423;SDS011;41294;42.666;23.350;2022-09-03T19:41:17;10.40;;;7.30;;
55423;SDS011;41294;42.666;23.350;2022-09-03T19:44:22;8.32;;;7.35;;
55423;SDS011;41294;42.666;23.350;2022-09-03T19:47:31;11.68;;;7.50;;
55423;SDS011;41294;42.666;23.350;2022-09-03T19:50:40;10.77;;;7.95;;
55423;SDS011;41294;42.666;23.350;2022-09-03T19:53:42;8.02;;;7.22;;
55423;SDS011;41294;42.666;23.350;2022-09-03T19:56:30;9.25;;;8.10;;
55423;SDS011;41294;42.666;23.350;2022-09-03T19:59:18;10.55;;;7.25;;
55423;SDS011;41294;42.666;23.350;2022-09-03T20:02:03;12.18;;;7.45;;
55423;SDS011;41294;42.666;23.350;2022-09-03T20:05:09;9.55;;;7.85;;
55423;SDS011;41294;42.666;23.350;2022-09-03T20:07:56;8.73;;;7.88;;
55423;SDS011;41294;42.666;23.350;2022-09-03T20:10:42;11.07;;;7.70;;
55423;SDS011;41294;42.666;23.350;2022-09-03T20:13:16;10.27;;;8.27;;
55423;SDS011;41294;42.666;23.350;2022-09-03T20:18:36;9.80;;;8.15;;
55423;SDS011;41294;42.666;23.350;2022-09-03T20:24:43;11.68;;;8.05;;
55423;SDS011;41294;42.666;23.350;2022-09-03T20:27:29;9.25;;;7.75;;
55423;SDS011;41294;42.666;23.350;2022-09-03T20:51:19;12.32;;;8.50;;
55423;SDS011;41294;42.666;23.350;2022-09-03T20:54:05;14.95;;;8.25;;
55423;SDS011;41294;42.666;23.350;2022-09-03T21:00:19;10.80;;;8.65;;
55423;SDS011;41294;42.666;23.350;2022-09-03T21:02:51;10.65;;;7.65;;
55423;SDS011;41294;42.666;23.350;2022-09-03T21:05:33;10.43;;;8.15;;
55423;SDS011;41294;42.666;23.350;2022-09-03T21:10:57;12.65;;;8.48;;
55423;SDS011;41294;42.666;23.350;2022-09-03T21:13:30;17.67;;;9.05;;
55423;SDS011;41294;42.666;23.350;2022-09-03T21:22:02;11.23;;;8.35;;
55423;SDS011;41294;42.666;23.350;2022-09-03T21:24:35;10.88;;;8.85;;
55423;SDS011;41294;42.666;23.350;2022-09-03T21:27:54;12.98;;;8.55;;
55423;SDS011;41294;42.666;23.350;2022-09-03T21:32:37;11.32;;;8.63;;
55423;SDS011;41294;42.666;23.350;2022-09-03T21:38:13;11.85;;;9.60;;
55423;SDS011;41294;42.666;23.350;2022-09-03T21:40:51;9.73;;;8.10;;
55423;SDS011;41294;42.666;23.350;2022-09-03T21:43:28;11.13;;;7.90;;
55423;SDS011;41294;42.666;23.350;2022-09-03T21:46:06;13.25;;;7.72;;
55423;SDS011;41294;42.666;23.350;2022-09-03T21:48:47;9.30;;;8.02;;
55423;SDS011;41294;42.666;23.350;2022-09-03T21:54:02;12.27;;;8.65;;